sensor_id;sensor_type;location;lat;lon;timestamp;P1;durP1;ratioP1;P2;durP2;ratioP2
47365;SDS011;33105;47.964;7.982;2022-10-16T00:00:02;4.10;;;0.63;;
47365;SDS011;33105;47.964;7.982;2022-10-16T00:03:06;5.13;;;0.63;;
47365;SDS011;33105;47.964;7.982;2022-10-16T00:06:09;3.28;;;0.50;;
47365;SDS011;33105;47.964;7.982;2022-10-16T00:09:11;2.80;;;0.57;;
47365;SDS011;33105;47.964;7.982;2022-10-16T00:12:16;2.58;;;0.60;;
47365;SDS011;33105;47.964;7.982;2022-10-16T00:15:18;5.80;;;0.75;;
47365;SDS011;33105;47.964;7.982;2022-10-16T00:18:20;6.15;;;1.02;;
47365;SDS011;33105;47.964;7.982;2022-10-16T00:21:25;1.77;;;0.32;;
47365;SDS011;33105;47.964;7.982;2022-10-16T00:24:28;4.95;;;0.60;;
47365;SDS011;33105;47.964;7.982;2022-10-16T00:28:15;5.50;;;0.50;;
47365;SDS011;33105;47.964;7.982;2022-10-16T00:31:04;0.75;;;0.50;;
47365;SDS011;33105;47.964;7.982;2022-10-16T00:34:09;4.80;;;0.70;;
47365;SDS011;33105;47.964;7.982;2022-10-16T00:37:23;3.42;;;0.75;;
47365;SDS011;33105;47.964;7.982;2022-10-16T00:40:28;2.67;;;0.68;;
47365;SDS011;33105;47.964;7.982;2022-10-16T00:43:42;6.38;;;0.80;;
47365;SDS011;33105;47.964;7.982;2022-10-16T00:46:44;1.02;;;0.30;;
47365;SDS011;33105;47.964;7.982;2022-10-16T00:49:50;3.55;;;0.60;;
47365;SDS011;33105;47.964;7.982;2022-10-16T00:52:54;2.22;;;0.60;;
47365;SDS011;33105;47.964;7.982;2022-10-16T00:55:56;2.55;;;0.50;;
47365;SDS011;33105;47.964;7.982;2022-10-16T00:59:03;2.63;;;0.60;;
47365;SDS011;33105;47.964;7.982;2022-10-16T01:02:13;3.60;;;0.60;;
47365;SDS011;33105;47.964;7.982;2022-10-16T01:05:16;2.53;;;0.50;;
47365;SDS011;33105;47.964;7.982;2022-10-16T01:08:24;5.00;;;0.73;;
47365;SDS011;33105;47.964;7.982;2022-10-16T01:21:48;2.92;;;0.52;;
47365;SDS011;33105;47.964;7.982;2022-10-16T01:32:05;6.93;;;0.77;;
47365;SDS011;33105;47.964;7.982;2022-10-16T01:35:29;3.25;;;0.73;;
47365;SDS011;33105;47.964;7.982;2022-10-16T01:38:38;5.50;;;0.75;;
47365;SDS011;33105;47.964;7.982;2022-10-16T01:41:43;5.65;;;1.10;;
47365;SDS011;33105;47.964;7.982;2022-10-16T01:44:52;3.65;;;0.70;;
47365;SDS011;33105;47.964;7.982;2022-10-16T01:47:56;4.45;;;0.90;;
47365;SDS011;33105;47.964;7.982;2022-10-16T01:51:04;3.42;;;0.60;;
47365;SDS011;33105;47.964;7.982;2022-10-16T01:54:13;3.17;;;0.73;;
47365;SDS011;33105;47.964;7.982;2022-10-16T01:57:39;3.83;;;0.50;;
47365;SDS011;33105;47.964;7.982;2022-10-16T02:00:50;5.13;;;0.95;;
47365;SDS011;33105;47.964;7.982;2022-10-16T02:04:00;0.90;;;0.63;;
47365;SDS011;33105;47.964;7.982;2022-10-16T02:07:08;1.58;;;0.60;;
47365;SDS011;33105;47.964;7.982;2022-10-16T02:10:09;4.47;;;0.70;;
47365;SDS011;33105;47.964;7.982;2022-10-16T02:13:13;4.38;;;0.80;;
47365;SDS011;33105;47.964;7.982;2022-10-16T02:16:19;3.42;;;0.88;;
47365;SDS011;33105;47.964;7.982;2022-10-16T02:19:33;3.97;;;0.80;;
47365;SDS011;33105;47.964;7.982;2022-10-16T02:22:43;8.10;;;0.80;;
47365;SDS011;33105;47.964;7.982;2022-10-16T02:26:04;1.73;;;0.90;;
47365;SDS011;33105;47.964;7.982;2022-10-16T02:29:12;4.35;;;0.73;;
47365;SDS011;33105;47.964;7.982;2022-10-16T02:32:28;2.80;;;0.60;;
47365;SDS011;33105;47.964;7.982;2022-10-16T02:35:32;4.50;;;0.80;;
47365;SDS011;33105;47.964;7.982;2022-10-16T02:38:35;0.80;;;0.60;;
47365;SDS011;33105;47.964;7.982;2022-10-16T02:41:40;6.07;;;0.95;;
47365;SDS011;33105;47.964;7.982;2022-10-16T02:44:50;3.95;;;0.90;;
47365;SDS011;33105;47.964;7.982;2022-10-16T02:47:52;4.68;;;0.75;;
47365;SDS011;33105;47.964;7.982;2022-10-16T02:50:53;4.05;;;1.20;;
47365;SDS011;33105;47.964;7.982;2022-10-16T02:53:54;3.63;;;0.80;;
47365;SDS011;33105;47.964;7.982;2022-10-16T02:57:06;1.50;;;0.63;;
47365;SDS011;33105;47.964;7.982;2022-10-16T03:00:21;3.72;;;0.80;;
47365;SDS011;33105;47.964;7.982;2022-10-16T03:03:29;4.30;;;0.70;;
47365;SDS011;33105;47.964;7.982;2022-10-16T03:06:32;3.88;;;0.93;;
47365;SDS011;33105;47.964;7.982;2022-10-16T03:09:34;4.85;;;0.80;;
47365;SDS011;33105;47.964;7.982;2022-10-16T03:12:44;1.80;;;0.88;;
47365;SDS011;33105;47.964;7.982;2022-10-16T03:16:11;4.95;;;0.90;;
47365;SDS011;33105;47.964;7.982;2022-10-16T03:19:15;3.83;;;0.80;;
47365;SDS011;33105;47.964;7.982;2022-10-16T03:22:17;3.08;;;1.00;;
47365;SDS011;33105;47.964;7.982;2022-10-16T03:25:24;1.88;;;0.68;;
47365;SDS011;33105;47.964;7.982;2022-10-16T03:28:25;3.90;;;1.00;;
47365;SDS011;33105;47.964;7.982;2022-10-16T03:31:29;0.88;;;0.65;;
47365;SDS011;33105;47.964;7.982;2022-10-16T03:34:39;3.65;;;1.42;;
47365;SDS011;33105;47.964;7.982;2022-10-16T03:37:44;2.72;;;0.90;;
47365;SDS011;33105;47.964;7.982;2022-10-16T03:40:50;3.53;;;0.70;;
47365;SDS011;33105;47.964;7.982;2022-10-16T03:43:52;2.90;;;1.00;;
47365;SDS011;33105;47.964;7.982;2022-10-16T03:47:02;3.67;;;0.90;;
47365;SDS011;33105;47.964;7.982;2022-10-16T03:50:15;7.35;;;0.77;;
47365;SDS011;33105;47.964;7.982;2022-10-16T03:53:39;4.43;;;0.82;;
47365;SDS011;33105;47.964;7.982;2022-10-16T03:56:41;9.88;;;1.10;;
47365;SDS011;33105;47.964;7.982;2022-10-16T03:59:43;2.20;;;0.70;;
47365;SDS011;33105;47.964;7.982;2022-10-16T04:02:44;2.90;;;0.90;;
47365;SDS011;33105;47.964;7.982;2022-10-16T04:05:45;1.23;;;0.60;;
47365;SDS011;33105;47.964;7.982;2022-10-16T04:08:52;7.22;;;0.95;;
47365;SDS011;33105;47.964;7.982;2022-10-16T04:12:02;7.20;;;0.95;;
47365;SDS011;33105;47.964;7.982;2022-10-16T04:15:04;2.40;;;0.82;;
47365;SDS011;33105;47.964;7.982;2022-10-16T04:18:06;3.20;;;0.93;;
47365;SDS011;33105;47.964;7.982;2022-10-16T04:21:08;7.68;;;1.15;;
47365;SDS011;33105;47.964;7.982;2022-10-16T04:24:09;2.55;;;0.88;;
47365;SDS011;33105;47.964;7.982;2022-10-16T04:27:12;2.20;;;0.90;;
47365;SDS011;33105;47.964;7.982;2022-10-16T04:30:13;4.13;;;0.93;;
47365;SDS011;33105;47.964;7.982;2022-10-16T04:33:15;5.28;;;0.90;;
47365;SDS011;33105;47.964;7.982;2022-10-16T04:36:16;7.57;;;1.00;;
47365;SDS011;33105;47.964;7.982;2022-10-16T04:39:18;3.92;;;0.70;;
47365;SDS011;33105;47.964;7.982;2022-10-16T04:42:25;2.65;;;0.70;;
47365;SDS011;33105;47.964;7.982;2022-10-16T04:45:27;5.05;;;0.68;;
47365;SDS011;33105;47.964;7.982;2022-10-16T04:48:29;11.50;;;1.10;;
47365;SDS011;33105;47.964;7.982;2022-10-16T04:51:32;7.05;;;0.80;;
47365;SDS011;33105;47.964;7.982;2022-10-16T04:54:36;2.95;;;0.90;;
47365;SDS011;33105;47.964;7.982;2022-10-16T04:57:44;8.43;;;1.00;;
47365;SDS011;33105;47.964;7.982;2022-10-16T05:00:45;8.68;;;0.90;;
47365;SDS011;33105;47.964;7.982;2022-10-16T05:03:57;1.90;;;0.65;;
47365;SDS011;33105;47.964;7.982;2022-10-16T05:07:00;4.47;;;0.93;;
47365;SDS011;33105;47.964;7.982;2022-10-16T05:10:11;5.03;;;1.00;;
47365;SDS011;33105;47.964;7.982;2022-10-16T05:13:18;5.40;;;0.90;;
47365;SDS011;33105;47.964;7.982;2022-10-16T05:16:25;7.25;;;1.00;;
47365;SDS011;33105;47.964;7.982;2022-10-16T05:19:27;3.72;;;0.82;;
47365;SDS011;33105;47.964;7.982;2022-10-16T05:22:31;2.17;;;0.90;;
47365;SDS011;33105;47.964;7.982;2022-10-16T05:25:46;1.75;;;0.80;;
47365;SDS011;33105;47.964;7.982;2022-10-16T05:29:04;0.73;;;0.70;;
47365;SDS011;33105;47.964;7.982;2022-10-16T05:32:07;3.25;;;0.93;;
47365;SDS011;33105;47.964;7.982;2022-10-16T05:35:11;2.90;;;1.15;;
47365;SDS011;33105;47.964;7.982;2022-10-16T05:38:13;4.75;;;1.42;;
47365;SDS011;33105;47.964;7.982;2022-10-16T05:41:20;6.00;;;1.23;;
47365;SDS011;33105;47.964;7.982;2022-10-16T05:44:27;5.55;;;1.13;;
47365;SDS011;33105;47.964;7.982;2022-10-16T05:47:28;4.72;;;0.80;;
47365;SDS011;33105;47.964;7.982;2022-10-16T05:50:30;4.70;;;1.40;;
47365;SDS011;33105;47.964;7.982;2022-10-16T05:53:34;6.40;;;1.00;;
47365;SDS011;33105;47.964;7.982;2022-10-16T05:56:40;2.40;;;1.17;;
47365;SDS011;33105;47.964;7.982;2022-10-16T05:59:41;6.18;;;0.90;;
47365;SDS011;33105;47.964;7.982;2022-10-16T06:02:43;4.57;;;1.30;;
47365;SDS011;33105;47.964;7.982;2022-10-16T06:05:48;4.97;;;1.20;;
47365;SDS011;33105;47.964;7.982;2022-10-16T06:08:56;6.95;;;1.00;;
47365;SDS011;33105;47.964;7.982;2022-10-16T06:12:16;7.70;;;1.48;;
47365;SDS011;33105;47.964;7.982;2022-10-16T06:15:17;5.55;;;1.05;;
47365;SDS011;33105;47.964;7.982;2022-10-16T06:18:22;2.85;;;1.23;;
47365;SDS011;33105;47.964;7.982;2022-10-16T06:21:26;8.77;;;1.52;;
47365;SDS011;33105;47.964;7.982;2022-10-16T06:24:28;9.30;;;1.50;;
47365;SDS011;33105;47.964;7.982;2022-10-16T06:27:29;4.13;;;1.10;;
47365;SDS011;33105;47.964;7.982;2022-10-16T06:30:32;2.53;;;0.93;;
47365;SDS011;33105;47.964;7.982;2022-10-16T06:33:34;5.30;;;1.10;;
47365;SDS011;33105;47.964;7.982;2022-10-16T06:36:36;4.30;;;1.15;;
47365;SDS011;33105;47.964;7.982;2022-10-16T06:39:38;11.40;;;1.50;;
47365;SDS011;33105;47.964;7.982;2022-10-16T06:42:40;6.95;;;1.15;;
47365;SDS011;33105;47.964;7.982;2022-10-16T06:45:42;5.55;;;1.42;;
47365;SDS011;33105;47.964;7.982;2022-10-16T06:48:43;2.25;;;1.10;;
47365;SDS011;33105;47.964;7.982;2022-10-16T06:51:46;6.38;;;1.30;;
47365;SDS011;33105;47.964;7.982;2022-10-16T06:54:47;5.00;;;1.30;;
47365;SDS011;33105;47.964;7.982;2022-10-16T06:57:48;7.35;;;1.75;;
47365;SDS011;33105;47.964;7.982;2022-10-16T07:00:54;3.17;;;1.40;;
47365;SDS011;33105;47.964;7.982;2022-10-16T07:03:58;5.68;;;1.02;;
47365;SDS011;33105;47.964;7.982;2022-10-16T07:07:10;2.45;;;1.30;;
47365;SDS011;33105;47.964;7.982;2022-10-16T07:10:11;2.50;;;1.30;;
47365;SDS011;33105;47.964;7.982;2022-10-16T07:13:13;2.20;;;1.50;;
47365;SDS011;33105;47.964;7.982;2022-10-16T07:16:16;3.40;;;1.10;;
47365;SDS011;33105;47.964;7.982;2022-10-16T07:19:19;3.97;;;0.95;;
47365;SDS011;33105;47.964;7.982;2022-10-16T07:22:20;1.00;;;0.90;;
47365;SDS011;33105;47.964;7.982;2022-10-16T07:25:24;5.60;;;1.00;;
47365;SDS011;33105;47.964;7.982;2022-10-16T07:28:32;6.93;;;1.20;;
47365;SDS011;33105;47.964;7.982;2022-10-16T07:31:34;3.58;;;0.98;;
47365;SDS011;33105;47.964;7.982;2022-10-16T07:34:37;3.05;;;1.00;;
47365;SDS011;33105;47.964;7.982;2022-10-16T07:37:39;8.20;;;1.10;;
47365;SDS011;33105;47.964;7.982;2022-10-16T07:40:57;5.95;;;1.00;;
47365;SDS011;33105;47.964;7.982;2022-10-16T07:44:00;5.95;;;1.00;;
47365;SDS011;33105;47.964;7.982;2022-10-16T07:47:01;11.07;;;1.25;;
47365;SDS011;33105;47.964;7.982;2022-10-16T07:50:03;1.35;;;1.17;;
47365;SDS011;33105;47.964;7.982;2022-10-16T07:53:05;3.40;;;0.93;;
47365;SDS011;33105;47.964;7.982;2022-10-16T07:56:06;2.35;;;0.80;;
47365;SDS011;33105;47.964;7.982;2022-10-16T07:59:08;10.25;;;0.95;;
47365;SDS011;33105;47.964;7.982;2022-10-16T08:02:09;7.07;;;1.70;;
47365;SDS011;33105;47.964;7.982;2022-10-16T08:05:11;5.55;;;1.55;;
47365;SDS011;33105;47.964;7.982;2022-10-16T08:08:16;4.45;;;1.10;;
47365;SDS011;33105;47.964;7.982;2022-10-16T08:11:18;5.93;;;0.90;;
47365;SDS011;33105;47.964;7.982;2022-10-16T08:14:19;2.38;;;1.00;;
47365;SDS011;33105;47.964;7.982;2022-10-16T08:17:21;4.43;;;1.00;;
47365;SDS011;33105;47.964;7.982;2022-10-16T08:20:22;6.97;;;1.35;;
47365;SDS011;33105;47.964;7.982;2022-10-16T08:23:24;5.38;;;1.30;;
47365;SDS011;33105;47.964;7.982;2022-10-16T08:26:26;7.38;;;1.30;;
47365;SDS011;33105;47.964;7.982;2022-10-16T08:29:28;4.47;;;1.40;;
47365;SDS011;33105;47.964;7.982;2022-10-16T08:32:29;5.93;;;1.38;;
47365;SDS011;33105;47.964;7.982;2022-10-16T08:35:31;6.47;;;1.30;;
47365;SDS011;33105;47.964;7.982;2022-10-16T08:38:32;11.23;;;1.30;;
47365;SDS011;33105;47.964;7.982;2022-10-16T08:51:29;4.57;;;1.10;;
47365;SDS011;33105;47.964;7.982;2022-10-16T08:54:37;5.93;;;0.90;;
47365;SDS011;33105;47.964;7.982;2022-10-16T09:00:45;9.52;;;1.67;;
47365;SDS011;33105;47.964;7.982;2022-10-16T09:04:05;2.13;;;1.17;;
47365;SDS011;33105;47.964;7.982;2022-10-16T09:11:34;3.25;;;1.00;;
47365;SDS011;33105;47.964;7.982;2022-10-16T09:18:21;8.90;;;1.02;;
47365;SDS011;33105;47.964;7.982;2022-10-16T09:21:30;5.85;;;1.23;;
47365;SDS011;33105;47.964;7.982;2022-10-16T09:24:35;4.63;;;1.33;;
47365;SDS011;33105;47.964;7.982;2022-10-16T09:27:37;8.88;;;1.20;;
47365;SDS011;33105;47.964;7.982;2022-10-16T09:30:39;2.90;;;1.02;;
47365;SDS011;33105;47.964;7.982;2022-10-16T09:33:40;1.45;;;0.93;;
47365;SDS011;33105;47.964;7.982;2022-10-16T09:36:43;7.90;;;1.17;;
47365;SDS011;33105;47.964;7.982;2022-10-16T09:39:51;5.10;;;1.20;;
47365;SDS011;33105;47.964;7.982;2022-10-16T09:46:27;8.52;;;1.25;;
47365;SDS011;33105;47.964;7.982;2022-10-16T09:49:31;3.37;;;0.83;;
47365;SDS011;33105;47.964;7.982;2022-10-16T09:52:33;4.88;;;0.98;;
47365;SDS011;33105;47.964;7.982;2022-10-16T09:55:34;2.80;;;0.65;;
47365;SDS011;33105;47.964;7.982;2022-10-16T09:58:35;2.97;;;0.75;;
47365;SDS011;33105;47.964;7.982;2022-10-16T10:04:42;3.20;;;1.30;;
47365;SDS011;33105;47.964;7.982;2022-10-16T10:10:58;4.47;;;0.93;;
47365;SDS011;33105;47.964;7.982;2022-10-16T10:14:34;5.32;;;1.10;;
47365;SDS011;33105;47.964;7.982;2022-10-16T10:17:48;4.70;;;1.17;;
47365;SDS011;33105;47.964;7.982;2022-10-16T10:20:58;5.03;;;1.02;;
47365;SDS011;33105;47.964;7.982;2022-10-16T10:24:01;1.33;;;0.82;;
47365;SDS011;33105;47.964;7.982;2022-10-16T10:27:13;5.40;;;0.80;;
47365;SDS011;33105;47.964;7.982;2022-10-16T10:33:29;2.50;;;0.80;;
47365;SDS011;33105;47.964;7.982;2022-10-16T10:36:59;0.73;;;0.55;;
47365;SDS011;33105;47.964;7.982;2022-10-16T10:46:42;3.00;;;0.70;;
47365;SDS011;33105;47.964;7.982;2022-10-16T10:53:18;1.45;;;1.23;;
47365;SDS011;33105;47.964;7.982;2022-10-16T10:56:41;1.83;;;0.60;;
47365;SDS011;33105;47.964;7.982;2022-10-16T11:06:48;2.53;;;0.70;;
47365;SDS011;33105;47.964;7.982;2022-10-16T11:09:53;0.75;;;0.70;;
47365;SDS011;33105;47.964;7.982;2022-10-16T11:13:23;6.15;;;1.00;;
47365;SDS011;33105;47.964;7.982;2022-10-16T11:17:31;3.45;;;0.80;;
47365;SDS011;33105;47.964;7.982;2022-10-16T11:23:42;1.58;;;0.70;;
47365;SDS011;33105;47.964;7.982;2022-10-16T11:26:49;1.33;;;0.80;;
47365;SDS011;33105;47.964;7.982;2022-10-16T11:29:58;5.38;;;0.70;;
47365;SDS011;33105;47.964;7.982;2022-10-16T11:36:31;3.38;;;0.70;;
47365;SDS011;33105;47.964;7.982;2022-10-16T11:39:48;5.30;;;0.90;;
47365;SDS011;33105;47.964;7.982;2022-10-16T11:46:35;3.45;;;0.68;;
47365;SDS011;33105;47.964;7.982;2022-10-16T11:49:39;1.55;;;0.70;;
47365;SDS011;33105;47.964;7.982;2022-10-16T11:52:53;3.53;;;0.80;;
47365;SDS011;33105;47.964;7.982;2022-10-16T11:56:03;3.55;;;0.80;;
47365;SDS011;33105;47.964;7.982;2022-10-16T11:59:07;1.73;;;0.60;;
47365;SDS011;33105;47.964;7.982;2022-10-16T12:05:58;2.67;;;0.70;;
47365;SDS011;33105;47.964;7.982;2022-10-16T12:09:03;3.70;;;0.80;;
47365;SDS011;33105;47.964;7.982;2022-10-16T12:12:23;3.10;;;0.60;;
47365;SDS011;33105;47.964;7.982;2022-10-16T12:15:39;4.32;;;0.80;;
47365;SDS011;33105;47.964;7.982;2022-10-16T12:18:42;2.72;;;0.80;;
47365;SDS011;33105;47.964;7.982;2022-10-16T12:21:45;4.45;;;0.70;;
47365;SDS011;33105;47.964;7.982;2022-10-16T12:24:50;1.00;;;0.65;;
47365;SDS011;33105;47.964;7.982;2022-10-16T12:27:56;2.78;;;0.70;;
47365;SDS011;33105;47.964;7.982;2022-10-16T12:31:05;1.83;;;0.60;;
47365;SDS011;33105;47.964;7.982;2022-10-16T12:34:24;1.92;;;0.70;;
47365;SDS011;33105;47.964;7.982;2022-10-16T12:37:29;4.20;;;0.77;;
47365;SDS011;33105;47.964;7.982;2022-10-16T12:40:34;2.25;;;0.70;;
47365;SDS011;33105;47.964;7.982;2022-10-16T12:43:40;2.70;;;0.77;;
47365;SDS011;33105;47.964;7.982;2022-10-16T12:46:43;2.50;;;0.70;;
47365;SDS011;33105;47.964;7.982;2022-10-16T12:49:48;2.75;;;0.80;;
47365;SDS011;33105;47.964;7.982;2022-10-16T12:52:51;1.83;;;1.13;;
47365;SDS011;33105;47.964;7.982;2022-10-16T12:56:14;1.40;;;0.60;;
47365;SDS011;33105;47.964;7.982;2022-10-16T13:06:13;0.95;;;0.60;;
47365;SDS011;33105;47.964;7.982;2022-10-16T13:09:35;1.67;;;0.73;;
47365;SDS011;33105;47.964;7.982;2022-10-16T13:36:49;1.85;;;0.80;;
47365;SDS011;33105;47.964;7.982;2022-10-16T13:40:01;2.08;;;0.70;;
47365;SDS011;33105;47.964;7.982;2022-10-16T13:43:08;2.33;;;0.82;;
47365;SDS011;33105;47.964;7.982;2022-10-16T13:46:17;3.75;;;0.80;;
47365;SDS011;33105;47.964;7.982;2022-10-16T13:49:19;2.00;;;1.00;;
47365;SDS011;33105;47.964;7.982;2022-10-16T13:52:21;2.90;;;0.60;;
47365;SDS011;33105;47.964;7.982;2022-10-16T13:55:22;3.28;;;0.80;;
47365;SDS011;33105;47.964;7.982;2022-10-16T13:58:24;1.77;;;0.85;;
47365;SDS011;33105;47.964;7.982;2022-10-16T14:01:27;2.67;;;1.02;;
47365;SDS011;33105;47.964;7.982;2022-10-16T14:04:31;1.42;;;0.77;;
47365;SDS011;33105;47.964;7.982;2022-10-16T14:07:33;1.25;;;0.65;;
47365;SDS011;33105;47.964;7.982;2022-10-16T14:10:35;5.35;;;0.65;;
47365;SDS011;33105;47.964;7.982;2022-10-16T14:13:38;2.85;;;0.90;;
47365;SDS011;33105;47.964;7.982;2022-10-16T14:16:43;2.15;;;0.70;;
47365;SDS011;33105;47.964;7.982;2022-10-16T14:19:46;2.13;;;0.73;;
47365;SDS011;33105;47.964;7.982;2022-10-16T14:22:48;1.55;;;0.85;;
47365;SDS011;33105;47.964;7.982;2022-10-16T14:29:14;2.05;;;1.10;;
47365;SDS011;33105;47.964;7.982;2022-10-16T14:32:22;2.00;;;1.07;;
47365;SDS011;33105;47.964;7.982;2022-10-16T14:35:33;3.97;;;1.00;;
47365;SDS011;33105;47.964;7.982;2022-10-16T14:38:38;2.28;;;0.90;;
47365;SDS011;33105;47.964;7.982;2022-10-16T14:41:41;1.77;;;1.00;;
47365;SDS011;33105;47.964;7.982;2022-10-16T14:44:46;1.77;;;0.98;;
47365;SDS011;33105;47.964;7.982;2022-10-16T14:47:52;6.45;;;1.02;;
47365;SDS011;33105;47.964;7.982;2022-10-16T14:50:56;2.33;;;1.05;;
47365;SDS011;33105;47.964;7.982;2022-10-16T14:53:58;3.40;;;0.80;;
47365;SDS011;33105;47.964;7.982;2022-10-16T14:56:59;4.53;;;1.00;;
47365;SDS011;33105;47.964;7.982;2022-10-16T15:00:00;4.57;;;0.90;;
47365;SDS011;33105;47.964;7.982;2022-10-16T15:03:02;2.20;;;1.15;;
47365;SDS011;33105;47.964;7.982;2022-10-16T15:06:03;3.53;;;1.27;;
47365;SDS011;33105;47.964;7.982;2022-10-16T15:09:10;3.85;;;1.10;;
47365;SDS011;33105;47.964;7.982;2022-10-16T15:12:12;2.03;;;0.80;;
47365;SDS011;33105;47.964;7.982;2022-10-16T15:18:23;7.32;;;1.15;;
47365;SDS011;33105;47.964;7.982;2022-10-16T15:21:27;9.23;;;1.02;;
47365;SDS011;33105;47.964;7.982;2022-10-16T15:24:30;3.53;;;0.93;;
47365;SDS011;33105;47.964;7.982;2022-10-16T15:27:31;8.32;;;1.25;;
47365;SDS011;33105;47.964;7.982;2022-10-16T15:30:40;5.07;;;1.25;;
47365;SDS011;33105;47.964;7.982;2022-10-16T15:33:42;5.13;;;1.50;;
47365;SDS011;33105;47.964;7.982;2022-10-16T15:36:43;7.70;;;1.30;;
47365;SDS011;33105;47.964;7.982;2022-10-16T15:39:45;1.83;;;0.90;;
47365;SDS011;33105;47.964;7.982;2022-10-16T15:42:46;1.08;;;0.90;;
47365;SDS011;33105;47.964;7.982;2022-10-16T15:45:54;1.25;;;0.85;;
47365;SDS011;33105;47.964;7.982;2022-10-16T15:49:07;2.92;;;0.90;;
47365;SDS011;33105;47.964;7.982;2022-10-16T15:52:09;7.57;;;1.30;;
47365;SDS011;33105;47.964;7.982;2022-10-16T15:55:11;3.53;;;1.00;;
47365;SDS011;33105;47.964;7.982;2022-10-16T15:58:14;4.78;;;1.10;;
47365;SDS011;33105;47.964;7.982;2022-10-16T16:01:15;9.18;;;1.45;;
47365;SDS011;33105;47.964;7.982;2022-10-16T16:04:17;2.50;;;0.95;;
47365;SDS011;33105;47.964;7.982;2022-10-16T16:07:18;7.78;;;1.05;;
47365;SDS011;33105;47.964;7.982;2022-10-16T16:10:20;1.10;;;0.70;;
47365;SDS011;33105;47.964;7.982;2022-10-16T16:13:21;2.13;;;0.77;;
47365;SDS011;33105;47.964;7.982;2022-10-16T16:16:23;3.75;;;1.20;;
47365;SDS011;33105;47.964;7.982;2022-10-16T16:19:24;7.43;;;1.10;;
47365;SDS011;33105;47.964;7.982;2022-10-16T16:22:26;7.78;;;1.25;;
47365;SDS011;33105;47.964;7.982;2022-10-16T16:25:27;6.63;;;1.08;;
47365;SDS011;33105;47.964;7.982;2022-10-16T16:28:28;6.43;;;1.40;;
47365;SDS011;33105;47.964;7.982;2022-10-16T16:31:31;3.17;;;1.20;;
47365;SDS011;33105;47.964;7.982;2022-10-16T16:34:33;5.07;;;1.15;;
47365;SDS011;33105;47.964;7.982;2022-10-16T16:37:35;5.57;;;1.10;;
47365;SDS011;33105;47.964;7.982;2022-10-16T16:40:36;4.82;;;1.30;;
47365;SDS011;33105;47.964;7.982;2022-10-16T16:43:37;10.80;;;1.48;;
47365;SDS011;33105;47.964;7.982;2022-10-16T16:46:38;3.08;;;1.20;;
47365;SDS011;33105;47.964;7.982;2022-10-16T16:49:40;5.28;;;1.10;;
47365;SDS011;33105;47.964;7.982;2022-10-16T16:52:41;4.10;;;1.25;;
47365;SDS011;33105;47.964;7.982;2022-10-16T16:55:42;9.00;;;1.40;;
47365;SDS011;33105;47.964;7.982;2022-10-16T16:58:47;6.60;;;1.30;;
47365;SDS011;33105;47.964;7.982;2022-10-16T17:01:50;10.15;;;2.20;;
47365;SDS011;33105;47.964;7.982;2022-10-16T17:04:52;11.50;;;1.20;;
47365;SDS011;33105;47.964;7.982;2022-10-16T17:07:54;9.55;;;1.20;;
47365;SDS011;33105;47.964;7.982;2022-10-16T17:10:55;5.00;;;1.30;;
47365;SDS011;33105;47.964;7.982;2022-10-16T17:13:57;7.90;;;1.40;;
47365;SDS011;33105;47.964;7.982;2022-10-16T17:17:00;3.83;;;1.30;;
47365;SDS011;33105;47.964;7.982;2022-10-16T17:20:01;4.95;;;1.17;;
47365;SDS011;33105;47.964;7.982;2022-10-16T17:23:02;9.27;;;1.42;;
47365;SDS011;33105;47.964;7.982;2022-10-16T17:26:07;8.20;;;2.50;;
47365;SDS011;33105;47.964;7.982;2022-10-16T17:32:14;4.43;;;1.60;;
47365;SDS011;33105;47.964;7.982;2022-10-16T17:35:16;13.05;;;1.38;;
47365;SDS011;33105;47.964;7.982;2022-10-16T17:38:17;9.27;;;1.23;;
47365;SDS011;33105;47.964;7.982;2022-10-16T17:41:20;5.10;;;1.65;;
47365;SDS011;33105;47.964;7.982;2022-10-16T17:44:23;6.80;;;1.92;;
47365;SDS011;33105;47.964;7.982;2022-10-16T17:47:24;15.80;;;1.95;;
47365;SDS011;33105;47.964;7.982;2022-10-16T17:50:25;8.52;;;1.58;;
47365;SDS011;33105;47.964;7.982;2022-10-16T17:53:26;6.78;;;1.33;;
47365;SDS011;33105;47.964;7.982;2022-10-16T17:56:28;9.00;;;1.48;;
47365;SDS011;33105;47.964;7.982;2022-10-16T17:59:30;2.78;;;1.60;;
47365;SDS011;33105;47.964;7.982;2022-10-16T18:02:32;8.52;;;1.52;;
47365;SDS011;33105;47.964;7.982;2022-10-16T18:05:36;6.03;;;1.65;;
47365;SDS011;33105;47.964;7.982;2022-10-16T18:08:38;3.78;;;1.40;;
47365;SDS011;33105;47.964;7.982;2022-10-16T18:11:39;17.55;;;1.90;;
47365;SDS011;33105;47.964;7.982;2022-10-16T18:14:41;6.85;;;1.80;;
47365;SDS011;33105;47.964;7.982;2022-10-16T18:17:42;7.50;;;1.60;;
47365;SDS011;33105;47.964;7.982;2022-10-16T18:20:43;2.10;;;1.40;;
47365;SDS011;33105;47.964;7.982;2022-10-16T18:23:45;6.32;;;1.70;;
47365;SDS011;33105;47.964;7.982;2022-10-16T18:26:48;3.97;;;1.35;;
47365;SDS011;33105;47.964;7.982;2022-10-16T18:29:49;3.83;;;1.60;;
47365;SDS011;33105;47.964;7.982;2022-10-16T18:32:56;16.52;;;1.70;;
47365;SDS011;33105;47.964;7.982;2022-10-16T18:36:11;3.83;;;1.75;;
47365;SDS011;33105;47.964;7.982;2022-10-16T18:39:13;3.95;;;1.65;;
47365;SDS011;33105;47.964;7.982;2022-10-16T18:42:16;8.38;;;1.80;;
47365;SDS011;33105;47.964;7.982;2022-10-16T18:45:18;2.55;;;1.33;;
47365;SDS011;33105;47.964;7.982;2022-10-16T18:48:20;3.45;;;1.48;;
47365;SDS011;33105;47.964;7.982;2022-10-16T18:51:23;2.67;;;1.27;;
47365;SDS011;33105;47.964;7.982;2022-10-16T18:54:29;7.32;;;1.52;;
47365;SDS011;33105;47.964;7.982;2022-10-16T18:57:31;3.35;;;1.50;;
47365;SDS011;33105;47.964;7.982;2022-10-16T19:00:33;4.32;;;1.63;;
47365;SDS011;33105;47.964;7.982;2022-10-16T19:03:34;5.80;;;1.60;;
47365;SDS011;33105;47.964;7.982;2022-10-16T19:06:38;8.40;;;1.70;;
47365;SDS011;33105;47.964;7.982;2022-10-16T19:09:42;11.68;;;1.88;;
47365;SDS011;33105;47.964;7.982;2022-10-16T19:12:43;2.80;;;1.63;;
47365;SDS011;33105;47.964;7.982;2022-10-16T19:15:45;4.63;;;2.00;;
47365;SDS011;33105;47.964;7.982;2022-10-16T19:18:51;3.67;;;1.80;;
47365;SDS011;33105;47.964;7.982;2022-10-16T19:21:55;2.90;;;1.70;;
47365;SDS011;33105;47.964;7.982;2022-10-16T19:25:11;6.50;;;1.92;;
47365;SDS011;33105;47.964;7.982;2022-10-16T19:28:12;7.07;;;1.88;;
47365;SDS011;33105;47.964;7.982;2022-10-16T19:31:15;7.53;;;1.83;;
47365;SDS011;33105;47.964;7.982;2022-10-16T19:34:20;3.90;;;2.00;;
47365;SDS011;33105;47.964;7.982;2022-10-16T19:37:22;6.85;;;1.90;;
47365;SDS011;33105;47.964;7.982;2022-10-16T19:40:26;7.03;;;2.22;;
47365;SDS011;33105;47.964;7.982;2022-10-16T19:43:27;4.68;;;2.00;;
47365;SDS011;33105;47.964;7.982;2022-10-16T19:46:38;6.13;;;1.95;;
47365;SDS011;33105;47.964;7.982;2022-10-16T19:49:40;3.72;;;1.88;;
47365;SDS011;33105;47.964;7.982;2022-10-16T19:52:41;3.75;;;1.98;;
47365;SDS011;33105;47.964;7.982;2022-10-16T19:55:43;4.28;;;1.85;;
47365;SDS011;33105;47.964;7.982;2022-10-16T19:58:49;10.27;;;2.20;;
47365;SDS011;33105;47.964;7.982;2022-10-16T20:01:51;6.25;;;1.85;;
47365;SDS011;33105;47.964;7.982;2022-10-16T20:05:01;7.53;;;1.73;;
47365;SDS011;33105;47.964;7.982;2022-10-16T20:08:06;8.15;;;1.75;;
47365;SDS011;33105;47.964;7.982;2022-10-16T20:11:18;6.55;;;2.15;;
47365;SDS011;33105;47.964;7.982;2022-10-16T20:14:24;8.57;;;2.30;;
47365;SDS011;33105;47.964;7.982;2022-10-16T20:17:39;5.78;;;1.65;;
47365;SDS011;33105;47.964;7.982;2022-10-16T20:20:43;8.30;;;1.90;;
47365;SDS011;33105;47.964;7.982;2022-10-16T20:23:51;7.05;;;1.77;;
47365;SDS011;33105;47.964;7.982;2022-10-16T20:26:53;10.55;;;1.70;;
47365;SDS011;33105;47.964;7.982;2022-10-16T20:29:54;7.55;;;2.00;;
47365;SDS011;33105;47.964;7.982;2022-10-16T20:33:07;4.53;;;1.60;;
47365;SDS011;33105;47.964;7.982;2022-10-16T20:36:10;6.05;;;1.80;;
47365;SDS011;33105;47.964;7.982;2022-10-16T20:39:12;6.38;;;1.52;;